createdAt,value
2019-03-21T00:02:18.602Z,146.43
2019-03-21T00:04:52.665Z,129.07
2019-03-21T00:07:22.323Z,150.50
2019-03-21T00:10:09.890Z,156.70
2019-03-21T00:12:39.534Z,156.75
2019-03-21T00:15:11.757Z,159.50
2019-03-21T00:17:42.719Z,144.62
2019-03-21T00:20:14.364Z,152.87
2019-03-21T00:22:44.011Z,143.60
2019-03-21T00:25:15.087Z,141.28
2019-03-21T00:27:45.856Z,136.82
2019-03-21T00:30:19.645Z,153.50
2019-03-21T00:32:49.190Z,140.07
2019-03-21T00:35:18.940Z,158.32
2019-03-21T00:37:48.695Z,147.98
2019-03-21T00:40:23.440Z,159.32
2019-03-21T00:42:53.153Z,163.90
2019-03-21T00:45:22.768Z,163.20
2019-03-21T00:47:52.331Z,172.07
2019-03-21T00:50:23.381Z,169.10
2019-03-21T00:52:53.777Z,170.57
2019-03-21T00:55:24.191Z,165.65
2019-03-21T00:57:53.723Z,154.63
2019-03-21T01:00:24.904Z,162.12
2019-03-21T01:02:54.740Z,159.30
2019-03-21T01:05:24.425Z,169.28
2019-03-21T01:07:54.321Z,166.55
2019-03-21T01:10:29.228Z,168.20
2019-03-21T01:12:58.967Z,161.57
2019-03-21T01:15:29.008Z,166.20
2019-03-21T01:17:58.762Z,168.62
2019-03-21T01:20:28.420Z,158.18
2019-03-21T01:22:58.065Z,160.03
2019-03-21T01:25:34.927Z,165.80
2019-03-21T01:28:04.837Z,165.30
2019-03-21T01:30:35.059Z,168.45
2019-03-21T01:33:04.697Z,174.93
2019-03-21T01:35:35.016Z,152.90
2019-03-21T01:38:04.621Z,163.30
2019-03-21T01:40:44.668Z,161.92
2019-03-21T01:43:14.636Z,154.40
2019-03-21T01:45:44.682Z,176.12
2019-03-21T01:48:14.816Z,154.68
2019-03-21T01:50:45.071Z,151.65
2019-03-21T01:53:16.340Z,148.97
2019-03-21T01:55:46.348Z,149.42
2019-03-21T01:58:16.339Z,146.28
2019-03-21T02:00:56.946Z,148.30
2019-03-21T02:03:26.923Z,143.02
2019-03-21T02:05:56.622Z,150.35
2019-03-21T02:08:26.227Z,145.97
2019-03-21T02:10:56.086Z,150.68
2019-03-21T02:13:26.303Z,154.35
2019-03-21T02:15:55.985Z,158.18
2019-03-21T02:18:25.567Z,155.20
2019-03-21T02:20:55.503Z,157.57
2019-03-21T02:23:25.635Z,158.15
2019-03-21T02:25:55.549Z,152.00
2019-03-21T02:28:25.557Z,162.60
2019-03-21T02:30:55.586Z,159.10
2019-03-21T02:33:33.374Z,163.52
2019-03-21T02:36:06.547Z,162.88
2019-03-21T02:38:36.584Z,162.10
2019-03-21T02:41:10.559Z,172.60
2019-03-21T02:43:40.956Z,160.30
2019-03-21T02:46:11.094Z,158.27
2019-03-21T02:48:41.286Z,161.68
2019-03-21T02:51:11.267Z,157.20
2019-03-21T02:53:41.257Z,164.13
2019-03-21T02:56:18.237Z,170.05
2019-03-21T02:58:47.955Z,153.45
2019-03-21T03:01:17.911Z,161.65
2019-03-21T03:03:47.936Z,158.12
2019-03-21T03:06:17.904Z,161.47
2019-03-21T03:08:47.959Z,168.40
2019-03-21T03:11:20.172Z,160.90
2019-03-21T03:13:51.398Z,166.40
2019-03-21T03:16:21.891Z,159.52
2019-03-21T03:18:51.543Z,169.57
2019-03-21T03:21:21.501Z,168.13
2019-03-21T03:23:51.212Z,150.53
2019-03-21T03:26:21.449Z,164.65
2019-03-21T03:28:51.225Z,162.43
2019-03-21T03:31:21.318Z,156.05
2019-03-21T03:33:51.031Z,160.18
2019-03-21T03:36:20.621Z,147.72
2019-03-21T03:38:50.672Z,159.82
2019-03-21T03:41:22.341Z,149.70
2019-03-21T03:43:52.396Z,151.00
2019-03-21T03:46:22.404Z,149.50
2019-03-21T03:48:52.075Z,160.88
2019-03-21T03:51:21.623Z,153.95
2019-03-21T03:53:51.165Z,157.82
2019-03-21T03:56:21.280Z,158.03
2019-03-21T03:58:57.249Z,153.62
2019-03-21T04:01:27.288Z,115.10
2019-03-21T04:03:57.388Z,137.22
2019-03-21T04:06:27.447Z,141.88
2019-03-21T04:08:57.566Z,140.80
2019-03-21T04:11:27.260Z,126.80
2019-03-21T04:13:56.947Z,128.93
2019-03-21T04:16:26.824Z,128.05
2019-03-21T04:18:56.594Z,114.50
2019-03-21T04:21:26.591Z,100.22
2019-03-21T04:23:59.557Z,120.42
2019-03-21T04:26:35.398Z,115.50
2019-03-21T04:29:05.282Z,86.95
2019-03-21T04:31:35.306Z,69.58
2019-03-21T04:34:08.540Z,110.12
2019-03-21T04:36:38.847Z,108.52
2019-03-21T04:39:09.315Z,96.92
2019-03-21T04:41:40.887Z,101.15
2019-03-21T04:44:10.797Z,95.77
2019-03-21T04:46:40.736Z,111.10
2019-03-21T04:49:10.769Z,102.72
2019-03-21T04:51:40.811Z,111.05
2019-03-21T04:54:10.761Z,117.90
2019-03-21T04:56:40.826Z,118.55
2019-03-21T04:59:10.849Z,116.53
2019-03-21T05:01:40.888Z,115.32
2019-03-21T05:04:10.877Z,116.50
2019-03-21T05:06:40.916Z,126.12
2019-03-21T05:09:11.901Z,116.62
2019-03-21T05:11:41.836Z,122.58
2019-03-21T05:14:11.866Z,121.33
2019-03-21T05:16:46.156Z,112.57
2019-03-21T05:19:17.281Z,105.80
2019-03-21T05:21:47.227Z,117.22
2019-03-21T05:24:17.199Z,114.88
2019-03-21T05:26:47.190Z,88.05
2019-03-21T05:29:17.196Z,102.00
2019-03-21T05:31:47.327Z,99.60
2019-03-21T05:34:17.347Z,105.45
2019-03-21T05:36:48.407Z,95.92
2019-03-21T05:39:18.873Z,98.47
2019-03-21T05:41:49.593Z,100.02
2019-03-21T05:44:23.616Z,80.85
2019-03-21T05:46:53.137Z,80.87
2019-03-21T05:49:22.979Z,108.45
2019-03-21T05:51:53.324Z,105.83
2019-03-21T05:54:24.818Z,102.75
2019-03-21T05:56:54.822Z,103.97
2019-03-21T05:59:25.067Z,104.95
2019-03-21T06:01:55.111Z,82.47
2019-03-21T06:04:25.221Z,98.35
2019-03-21T06:07:07.063Z,105.70
2019-03-21T06:09:37.137Z,101.70
2019-03-21T06:12:08.051Z,79.72
2019-03-21T06:14:44.518Z,92.78
2019-03-21T06:17:14.532Z,94.67
2019-03-21T06:19:53.776Z,103.92
2019-03-21T06:22:29.535Z,88.47
2019-03-21T06:25:15.900Z,95.85
2019-03-21T06:27:46.116Z,103.22
2019-03-21T06:30:17.307Z,92.90
2019-03-21T06:32:47.381Z,92.08
2019-03-21T06:35:21.219Z,93.72
2019-03-21T06:37:51.424Z,89.65
2019-03-21T06:40:21.626Z,87.17
2019-03-21T06:42:52.111Z,80.30
2019-03-21T06:45:21.613Z,53.00
2019-03-21T06:47:53.109Z,82.70
2019-03-21T06:50:22.906Z,84.52
2019-03-21T06:52:52.968Z,72.22
2019-03-21T06:55:22.578Z,82.90
2019-03-21T06:57:52.109Z,79.87
2019-03-21T07:00:21.966Z,73.07
2019-03-21T07:02:51.589Z,70.47
2019-03-21T07:05:21.540Z,62.60
2019-03-21T07:07:51.303Z,60.25
2019-03-21T07:10:21.211Z,64.20
2019-03-21T07:12:51.218Z,79.62
2019-03-21T07:15:21.506Z,78.80
2019-03-21T07:17:51.428Z,68.85
2019-03-21T07:20:21.163Z,48.48
2019-03-21T07:22:51.095Z,58.75
2019-03-21T07:25:21.047Z,69.15
2019-03-21T07:27:51.019Z,53.98
2019-03-21T07:30:21.217Z,64.10
2019-03-21T07:32:50.915Z,58.75
2019-03-21T07:35:20.446Z,62.65
2019-03-21T07:37:50.387Z,61.42
2019-03-21T07:40:20.110Z,67.15
2019-03-21T07:42:50.292Z,63.50
2019-03-21T07:45:21.870Z,36.60
2019-03-21T07:47:51.449Z,59.77
2019-03-21T07:50:21.074Z,51.80
2019-03-21T07:52:50.933Z,51.98
2019-03-21T07:55:20.900Z,62.88
2019-03-21T07:57:50.938Z,56.08
2019-03-21T08:00:20.984Z,65.12
2019-03-21T08:02:51.121Z,44.10
2019-03-21T08:05:20.765Z,46.70
2019-03-21T08:07:50.751Z,71.17
2019-03-21T08:10:20.674Z,61.75
2019-03-21T08:12:50.674Z,65.08
2019-03-21T08:15:20.312Z,54.03
2019-03-21T08:17:49.845Z,62.53
2019-03-21T08:20:22.891Z,57.30
2019-03-21T08:22:52.851Z,68.35
2019-03-21T08:25:22.829Z,57.88
2019-03-21T08:27:52.784Z,69.47
2019-03-21T08:30:36.995Z,58.28
2019-03-21T08:33:07.020Z,66.10
2019-03-21T08:35:36.951Z,64.53
2019-03-21T08:38:07.135Z,57.78
2019-03-21T08:40:37.304Z,60.98
2019-03-21T08:43:07.394Z,31.40
2019-03-21T08:45:37.898Z,49.10
2019-03-21T08:48:07.765Z,27.70
2019-03-21T08:50:37.493Z,55.25
2019-03-21T08:53:07.499Z,37.95
2019-03-21T08:55:37.526Z,48.10
2019-03-21T08:58:07.810Z,50.43
2019-03-21T09:00:37.936Z,54.77
2019-03-21T09:03:08.615Z,48.05
2019-03-21T09:05:38.130Z,41.08
2019-03-21T09:08:08.050Z,53.23
2019-03-21T09:10:38.031Z,54.88
2019-03-21T09:13:08.129Z,68.12
2019-03-21T09:15:38.221Z,57.58
2019-03-21T09:18:08.166Z,62.20
2019-03-21T09:20:38.357Z,68.10
2019-03-21T09:23:09.308Z,54.85
2019-03-21T09:25:39.288Z,53.15
2019-03-21T09:28:09.234Z,57.15
2019-03-21T09:30:39.924Z,57.80
2019-03-21T09:33:09.781Z,54.83
2019-03-21T09:35:39.832Z,54.58
2019-03-21T09:38:09.866Z,54.13
2019-03-21T09:40:39.915Z,53.35
2019-03-21T09:43:10.324Z,41.98
2019-03-21T09:45:41.090Z,47.48
2019-03-21T09:48:11.072Z,57.10
2019-03-21T09:50:41.071Z,49.05
2019-03-21T09:53:10.741Z,45.48
2019-03-21T09:55:40.270Z,44.88
2019-03-21T09:58:09.788Z,41.83
2019-03-21T10:00:39.676Z,42.93
2019-03-21T10:03:09.338Z,37.90
2019-03-21T10:05:39.491Z,34.15
2019-03-21T10:08:09.512Z,29.95
2019-03-21T10:10:39.435Z,42.45
2019-03-21T10:13:09.101Z,35.95
2019-03-21T10:15:38.959Z,35.88
2019-03-21T10:18:08.590Z,30.05
2019-03-21T10:20:38.224Z,37.30
2019-03-21T10:23:08.203Z,36.20
2019-03-21T10:25:38.147Z,29.12
2019-03-21T10:28:08.086Z,38.28
2019-03-21T10:30:40.368Z,32.10
2019-03-21T10:33:12.521Z,39.40
2019-03-21T10:35:42.668Z,38.20
2019-03-21T10:38:12.876Z,37.55
2019-03-21T10:40:42.937Z,35.03
2019-03-21T10:43:13.133Z,41.53
2019-03-21T10:45:44.017Z,34.92
2019-03-21T10:48:13.968Z,36.00
2019-03-21T10:50:43.929Z,45.35
2019-03-21T10:53:14.196Z,41.33
2019-03-21T10:55:44.136Z,45.95
2019-03-21T10:58:14.181Z,34.83
2019-03-21T11:00:44.266Z,42.75
2019-03-21T11:03:14.285Z,37.40
2019-03-21T11:05:44.302Z,42.25
2019-03-21T11:08:14.396Z,39.63
2019-03-21T11:10:47.074Z,36.63
2019-03-21T11:13:16.209Z,54.20
2019-03-21T11:15:46.132Z,41.48
2019-03-21T11:18:15.795Z,36.08
2019-03-21T11:20:45.639Z,34.92
2019-03-21T11:23:15.739Z,34.45
2019-03-21T11:25:45.600Z,39.18
2019-03-21T11:28:17.626Z,40.38
2019-03-21T11:30:47.200Z,41.45
2019-03-21T11:33:17.174Z,37.58
2019-03-21T11:35:47.135Z,41.98
2019-03-21T11:38:17.467Z,31.95
2019-03-21T11:40:48.538Z,37.42
2019-03-21T11:43:18.733Z,33.15
2019-03-21T11:45:49.659Z,29.92
2019-03-21T11:48:19.938Z,31.50
2019-03-21T11:50:49.983Z,29.15
2019-03-21T11:53:20.081Z,31.93
2019-03-21T11:55:50.144Z,31.75
2019-03-21T11:58:20.095Z,28.83
2019-03-21T12:00:50.192Z,27.75
2019-03-21T12:03:20.146Z,35.17
2019-03-21T12:05:50.086Z,28.35
2019-03-21T12:08:20.059Z,23.73
2019-03-21T12:10:49.993Z,28.17
2019-03-21T12:13:19.972Z,33.80
2019-03-21T12:15:49.985Z,29.75
2019-03-21T12:18:19.969Z,31.17
2019-03-21T12:20:49.978Z,30.60
2019-03-21T12:23:19.988Z,32.00
2019-03-21T12:25:49.927Z,31.65
2019-03-21T12:28:19.984Z,31.35
2019-03-21T12:30:49.996Z,29.85
2019-03-21T12:33:20.171Z,40.17
2019-03-21T12:35:50.498Z,30.00
2019-03-21T12:38:20.456Z,36.17
2019-03-21T12:40:50.592Z,37.35
2019-03-21T12:43:20.604Z,38.20
2019-03-21T12:45:50.531Z,42.53
2019-03-21T12:48:21.256Z,39.27
2019-03-21T12:50:51.204Z,38.95
2019-03-21T12:53:21.234Z,34.53
2019-03-21T12:55:52.461Z,36.77
2019-03-21T12:58:41.802Z,33.13
2019-03-21T13:01:11.735Z,40.98
2019-03-21T13:03:41.681Z,40.38
2019-03-21T13:06:11.661Z,32.08
2019-03-21T13:08:41.657Z,32.08
2019-03-21T13:11:11.664Z,30.02
2019-03-21T13:13:41.718Z,35.48
2019-03-21T13:16:12.927Z,38.23
2019-03-21T13:18:42.918Z,34.73
2019-03-21T13:21:13.987Z,36.73
2019-03-21T13:23:43.982Z,30.32
2019-03-21T13:26:14.037Z,25.30
2019-03-21T13:28:44.059Z,32.73
2019-03-21T13:31:14.021Z,31.10
2019-03-21T13:33:43.986Z,31.15
2019-03-21T13:36:14.106Z,31.27
2019-03-21T13:38:44.046Z,31.65
2019-03-21T13:41:14.170Z,36.73
2019-03-21T13:43:44.330Z,29.48
2019-03-21T13:46:14.513Z,36.83
2019-03-21T13:48:45.404Z,36.20
2019-03-21T13:51:15.472Z,34.80
2019-03-21T13:53:45.484Z,33.85
2019-03-21T13:56:15.931Z,28.38
2019-03-21T13:58:46.758Z,33.67
2019-03-21T14:01:16.825Z,32.85
2019-03-21T14:03:46.780Z,30.20
2019-03-21T14:06:17.727Z,33.73
2019-03-21T14:08:47.685Z,33.00
2019-03-21T14:11:19.309Z,29.57
2019-03-21T14:13:49.491Z,32.80
2019-03-21T14:16:19.516Z,38.17
2019-03-21T14:18:49.527Z,32.55
2019-03-21T14:21:19.492Z,29.92
2019-03-21T14:23:49.459Z,34.55
2019-03-21T14:26:19.481Z,30.45
2019-03-21T14:28:49.482Z,33.30
2019-03-21T14:31:19.495Z,28.07
2019-03-21T14:33:49.446Z,30.82
2019-03-21T14:36:20.489Z,37.00
2019-03-21T14:38:50.522Z,31.35
2019-03-21T14:41:20.575Z,31.90
2019-03-21T14:43:50.498Z,41.77
2019-03-21T14:46:20.517Z,31.02
2019-03-21T14:48:51.322Z,32.30
2019-03-21T14:51:21.266Z,32.95
2019-03-21T14:53:51.218Z,33.83
2019-03-21T14:56:21.173Z,30.95
2019-03-21T14:58:51.109Z,31.45
2019-03-21T15:01:21.082Z,31.30
2019-03-21T15:03:51.278Z,29.75
2019-03-21T15:06:21.259Z,27.85
2019-03-21T15:08:51.197Z,34.98
2019-03-21T15:11:21.144Z,34.30
2019-03-21T15:13:51.099Z,41.25
2019-03-21T15:16:21.055Z,36.23
2019-03-21T15:18:51.007Z,34.78
2019-03-21T15:21:20.943Z,37.45
2019-03-21T15:23:59.322Z,31.40
2019-03-21T15:26:22.547Z,25.68
2019-03-21T15:28:52.524Z,35.10
2019-03-21T15:31:22.541Z,33.83
2019-03-21T15:33:52.505Z,34.95
2019-03-21T15:36:22.460Z,33.28
2019-03-21T15:38:52.500Z,35.28
2019-03-21T15:41:22.427Z,37.93
2019-03-21T15:43:52.363Z,36.70
2019-03-21T15:46:22.326Z,36.93
2019-03-21T15:48:52.270Z,36.35
2019-03-21T15:51:23.071Z,34.92
2019-03-21T15:53:56.483Z,38.28
2019-03-21T15:56:24.663Z,35.38
2019-03-21T15:58:54.597Z,40.58
2019-03-21T16:01:24.598Z,36.33
2019-03-21T16:03:54.636Z,38.30
2019-03-21T16:06:24.606Z,38.05
2019-03-21T16:08:54.669Z,37.05
2019-03-21T16:11:24.855Z,39.20
2019-03-21T16:13:54.792Z,36.00
2019-03-21T16:16:24.819Z,36.23
2019-03-21T16:18:54.776Z,43.80
2019-03-21T16:21:24.754Z,43.20
2019-03-21T16:24:04.550Z,40.80
2019-03-21T16:26:26.351Z,42.08
2019-03-21T16:28:56.363Z,36.50
2019-03-21T16:31:26.433Z,44.13
2019-03-21T16:33:56.467Z,43.28
2019-03-21T16:36:26.537Z,38.38
2019-03-21T16:38:56.643Z,39.83
2019-03-21T16:41:26.820Z,45.65
2019-03-21T16:43:56.751Z,40.28
2019-03-21T16:46:27.791Z,38.65
2019-03-21T16:48:57.725Z,38.05
2019-03-21T16:51:28.544Z,50.33
2019-03-21T16:53:58.491Z,45.10
2019-03-21T16:56:28.465Z,46.08
2019-03-21T16:58:59.006Z,46.20
2019-03-21T17:01:29.135Z,37.88
2019-03-21T17:03:59.200Z,42.23
2019-03-21T17:06:29.384Z,43.90
2019-03-21T17:08:59.430Z,44.88
2019-03-21T17:11:29.378Z,45.65
2019-03-21T17:13:59.021Z,45.55
2019-03-21T17:16:28.936Z,40.15
2019-03-21T17:18:58.936Z,35.60
2019-03-21T17:21:29.014Z,43.73
2019-03-21T17:23:59.049Z,49.05
2019-03-21T17:26:28.999Z,45.03
2019-03-21T17:28:59.018Z,43.60
2019-03-21T17:31:28.981Z,46.25
2019-03-21T17:33:59.058Z,53.17
2019-03-21T17:36:29.036Z,44.58
2019-03-21T17:38:59.023Z,49.88
2019-03-21T17:41:29.046Z,43.80
2019-03-21T17:43:59.135Z,49.05
2019-03-21T17:46:29.367Z,42.88
2019-03-21T17:48:59.346Z,45.70
2019-03-21T17:51:29.515Z,47.35
2019-03-21T17:54:00.482Z,45.48
2019-03-21T17:56:30.643Z,48.38
2019-03-21T17:59:00.573Z,41.65
2019-03-21T18:01:30.941Z,48.75
2019-03-21T18:04:01.093Z,45.55
2019-03-21T18:06:32.147Z,48.02
2019-03-21T18:09:02.175Z,44.53
2019-03-21T18:11:32.457Z,47.70
2019-03-21T18:14:02.678Z,43.85
2019-03-21T18:16:32.606Z,46.63
2019-03-21T18:19:02.744Z,46.55
2019-03-21T18:21:32.774Z,48.00
2019-03-21T18:24:02.919Z,43.75
2019-03-21T18:26:32.950Z,48.48
2019-03-21T18:29:03.489Z,48.95
2019-03-21T18:31:33.491Z,34.65
2019-03-21T18:34:03.581Z,49.33
2019-03-21T18:36:34.740Z,45.98
2019-03-21T18:39:07.159Z,45.28
2019-03-21T18:41:37.194Z,50.20
2019-03-21T18:44:07.231Z,49.05
2019-03-21T18:46:38.382Z,51.23
2019-03-21T18:49:08.743Z,51.30
2019-03-21T18:51:38.685Z,55.50
2019-03-21T18:54:08.943Z,46.28
2019-03-21T18:56:38.780Z,53.08
2019-03-21T18:59:08.410Z,50.95
2019-03-21T19:01:41.763Z,56.28
2019-03-21T19:04:11.900Z,51.77
2019-03-21T19:06:42.844Z,55.12
2019-03-21T19:09:12.586Z,41.75
2019-03-21T19:11:42.571Z,49.08
2019-03-21T19:14:12.650Z,51.83
2019-03-21T19:16:42.680Z,51.65
2019-03-21T19:19:12.864Z,50.75
2019-03-21T19:21:43.299Z,59.45
2019-03-21T19:24:12.964Z,51.40
2019-03-21T19:26:42.983Z,54.30
2019-03-21T19:29:14.983Z,59.10
2019-03-21T19:31:44.586Z,49.98
2019-03-21T19:34:14.793Z,53.42
2019-03-21T19:36:44.491Z,52.48
2019-03-21T19:39:14.148Z,57.13
2019-03-21T19:41:43.892Z,47.58
2019-03-21T19:44:14.025Z,55.95
2019-03-21T19:46:44.355Z,55.78
2019-03-21T19:49:14.428Z,62.50
2019-03-21T19:51:44.380Z,51.77
2019-03-21T19:54:14.346Z,59.33
2019-03-21T19:56:44.415Z,57.95
2019-03-21T19:59:14.033Z,54.53
2019-03-21T20:01:49.675Z,59.98
2019-03-21T20:04:19.685Z,54.58
2019-03-21T20:06:50.572Z,62.30
2019-03-21T20:09:20.616Z,61.33
2019-03-21T20:11:50.164Z,59.63
2019-03-21T20:14:19.768Z,58.55
2019-03-21T20:16:49.347Z,55.95
2019-03-21T20:19:18.880Z,66.92
2019-03-21T20:21:52.326Z,69.53
2019-03-21T20:24:21.948Z,65.83
2019-03-21T20:26:54.614Z,68.75
2019-03-21T20:29:24.323Z,67.75
2019-03-21T20:31:53.894Z,72.65
2019-03-21T20:34:24.021Z,69.40
2019-03-21T20:36:53.925Z,72.37
2019-03-21T20:39:23.441Z,73.25
2019-03-21T20:41:53.508Z,75.15
2019-03-21T20:44:23.644Z,75.12
2019-03-21T20:46:53.847Z,74.37
2019-03-21T20:49:23.513Z,79.92
2019-03-21T20:51:53.191Z,73.97
2019-03-21T20:54:22.903Z,77.15
2019-03-21T20:56:52.523Z,82.92
2019-03-21T20:59:22.145Z,79.67
2019-03-21T21:02:02.191Z,81.60
2019-03-21T21:04:23.044Z,79.70
2019-03-21T21:06:52.672Z,78.95
2019-03-21T21:09:22.408Z,81.25
2019-03-21T21:11:52.012Z,78.75
2019-03-21T21:14:21.875Z,85.22
2019-03-21T21:16:51.437Z,76.70
2019-03-21T21:19:20.936Z,87.72
2019-03-21T21:21:50.488Z,85.90
2019-03-21T21:24:20.283Z,89.45
2019-03-21T21:26:49.869Z,89.85
2019-03-21T21:29:19.452Z,87.12
2019-03-21T21:31:49.193Z,87.17
2019-03-21T21:34:19.166Z,84.37
2019-03-21T21:36:49.112Z,83.07
2019-03-21T21:39:19.424Z,90.67
2019-03-21T21:41:49.539Z,92.00
2019-03-21T21:44:19.479Z,95.47
2019-03-21T21:46:49.220Z,104.35
2019-03-21T21:49:19.358Z,95.83
2019-03-21T21:51:49.355Z,98.37
2019-03-21T21:54:23.979Z,92.22
2019-03-21T21:56:54.107Z,98.58
2019-03-21T21:59:24.105Z,96.10
2019-03-21T22:01:54.188Z,95.35
2019-03-21T22:04:24.146Z,100.87
2019-03-21T22:06:54.160Z,96.90
2019-03-21T22:09:23.801Z,94.05
2019-03-21T22:11:53.451Z,93.25
2019-03-21T22:14:23.137Z,101.27
2019-03-21T22:16:53.065Z,103.60
2019-03-21T22:19:22.912Z,106.85
2019-03-21T22:21:53.023Z,101.10
2019-03-21T22:24:23.136Z,104.70
2019-03-21T22:26:53.098Z,102.07
2019-03-21T22:29:23.384Z,102.38
2019-03-21T22:31:53.093Z,108.22
2019-03-21T22:34:23.039Z,108.52
2019-03-21T22:36:53.130Z,113.00
2019-03-21T22:39:23.711Z,114.12
2019-03-21T22:41:55.395Z,109.57
2019-03-21T22:44:25.031Z,113.32
2019-03-21T22:46:54.962Z,108.92
2019-03-21T22:49:24.963Z,111.50
2019-03-21T22:51:54.978Z,104.38
2019-03-21T22:54:24.954Z,112.00
2019-03-21T22:56:55.043Z,114.55
2019-03-21T22:59:25.042Z,112.80
2019-03-21T23:01:55.139Z,117.05
2019-03-21T23:04:25.204Z,119.10
2019-03-21T23:06:55.269Z,110.70
2019-03-21T23:09:25.438Z,106.63
2019-03-21T23:11:55.331Z,111.62
2019-03-21T23:14:26.685Z,114.05
2019-03-21T23:16:58.603Z,108.75
2019-03-21T23:19:28.643Z,107.97
2019-03-21T23:21:58.779Z,110.50
2019-03-21T23:24:29.107Z,112.10
2019-03-21T23:26:59.761Z,108.78
2019-03-21T23:29:29.815Z,120.95
2019-03-21T23:32:00.395Z,116.57
2019-03-21T23:34:30.634Z,113.90
2019-03-21T23:37:00.456Z,115.55
2019-03-21T23:39:30.431Z,111.97
2019-03-21T23:42:00.691Z,113.90
2019-03-21T23:44:30.515Z,113.40
2019-03-21T23:47:00.514Z,116.08
2019-03-21T23:49:30.519Z,119.35
2019-03-21T23:52:00.525Z,115.95
2019-03-21T23:54:30.556Z,117.37
2019-03-21T23:57:04.747Z,121.17
2019-03-21T23:59:32.340Z,121.00
